Time;durP1;ratioP1;P1;durP2;ratioP2;P2;SDS_P1;SDS_P2;PMS_P1;PMS_P2;Temp;Humidity;BMP_temperature;BMP_pressure;BME280_temperature;BME280_humidity;BME280_pressure;Samples;Min_cycle;Max_cycle;Signal;HPM_P1;HPM_P2
2023/08/16 00:00:24;;;;;;;6.47;2.95;;;;;;;;;;5015509;28;20192;-50
2023/08/16 00:02:50;;;;;;;3.75;3.20;;;;;;;;;;5014844;28;20187;-50
2023/08/16 00:05:16;;;;;;;4.30;3.13;;;;;;;;;;5016169;28;20176;-50
2023/08/16 00:07:42;;;;;;;3.42;3.13;;;;;;;;;;5014954;28;20867;-50
2023/08/16 00:10:11;;;;;;;3.90;3.28;;;;;;;;;;5015653;28;20821;-50
2023/08/16 00:12:38;;;;;;;3.80;3.22;;;;;;;;;;5013409;28;20271;-50
2023/08/16 00:15:04;;;;;;;6.63;2.92;;;;;;;;;;5015750;28;20212;-50
2023/08/16 00:17:30;;;;;;;3.40;3.08;;;;;;;;;;5015143;28;20240;-51
2023/08/16 00:19:55;;;;;;;6.03;3.35;;;;;;;;;;5015210;28;20511;-50
2023/08/16 00:22:21;;;;;;;2.92;2.72;;;;;;;;;;5014535;28;20552;-50
2023/08/16 00:24:48;;;;;;;3.55;2.97;;;;;;;;;;5015635;28;20267;-50
2023/08/16 00:27:14;;;;;;;4.30;3.20;;;;;;;;;;5014582;28;20267;-50
2023/08/16 00:29:40;;;;;;;5.05;3.38;;;;;;;;;;5015354;28;20173;-50
2023/08/16 00:32:07;;;;;;;7.75;3.47;;;;;;;;;;5014754;28;20192;-50
2023/08/16 00:34:33;;;;;;;9.40;3.47;;;;;;;;;;5014793;28;20198;-50
2023/08/16 00:36:59;;;;;;;7.55;3.30;;;;;;;;;;5015237;28;20188;-50
2023/08/16 00:39:25;;;;;;;4.63;3.28;;;;;;;;;;5014135;28;20230;-50
2023/08/16 00:41:51;;;;;;;3.67;3.08;;;;;;;;;;5015055;28;20474;-49
2023/08/16 00:44:17;;;;;;;6.10;3.13;;;;;;;;;;5011099;28;20176;-50
2023/08/16 00:46:43;;;;;;;4.90;2.95;;;;;;;;;;5015213;28;20172;-50
2023/08/16 00:49:09;;;;;;;4.38;3.20;;;;;;;;;;5014889;28;20185;-50
2023/08/16 00:51:35;;;;;;;5.53;3.90;;;;;;;;;;5015053;28;20192;-50
2023/08/16 00:54:01;;;;;;;6.00;3.15;;;;;;;;;;5013621;28;20276;-50
2023/08/16 00:56:27;;;;;;;4.82;3.60;;;;;;;;;;5015044;28;20188;-50
2023/08/16 00:58:53;;;;;;;4.93;3.08;;;;;;;;;;5013726;28;20294;-50
2023/08/16 01:01:19;;;;;;;3.38;2.97;;;;;;;;;;5014683;28;20172;-50
2023/08/16 01:03:46;;;;;;;4.25;2.65;;;;;;;;;;5013838;28;20186;-50
2023/08/16 01:06:12;;;;;;;3.50;2.75;;;;;;;;;;5014992;28;20556;-49
2023/08/16 01:08:39;;;;;;;3.28;2.75;;;;;;;;;;5015073;28;20227;-50
2023/08/16 01:11:09;;;;;;;5.30;3.17;;;;;;;;;;5014183;28;20199;-50
2023/08/16 01:13:37;;;;;;;3.53;3.20;;;;;;;;;;5014204;28;20203;-50
2023/08/16 01:16:08;;;;;;;5.15;3.20;;;;;;;;;;5014736;28;20196;-50
2023/08/16 01:18:37;;;;;;;4.15;3.22;;;;;;;;;;5014979;28;20236;-50
2023/08/16 01:21:03;;;;;;;8.82;3.55;;;;;;;;;;5018195;28;20183;-50
2023/08/16 01:23:38;;;;;;;4.28;3.03;;;;;;;;;;5017796;28;20176;-50
2023/08/16 01:26:08;;;;;;;3.58;2.53;;;;;;;;;;5018339;28;20411;-50
2023/08/16 01:28:35;;;;;;;3.70;2.88;;;;;;;;;;5018756;28;20184;-50
2023/08/16 01:31:05;;;;;;;3.90;3.17;;;;;;;;;;5017702;28;20564;-50
2023/08/16 01:33:31;;;;;;;4.05;3.00;;;;;;;;;;5018173;28;20192;-50
2023/08/16 01:35:57;;;;;;;3.40;3.00;;;;;;;;;;5017820;28;20268;-50
2023/08/16 01:38:23;;;;;;;4.85;3.17;;;;;;;;;;5017238;28;20291;-50
2023/08/16 01:40:49;;;;;;;4.72;3.25;;;;;;;;;;5018120;28;20203;-50
2023/08/16 01:43:17;;;;;;;4.22;3.00;;;;;;;;;;5017796;28;20625;-50
2023/08/16 01:45:43;;;;;;;5.93;2.90;;;;;;;;;;5018238;28;20221;-50
2023/08/16 01:48:10;;;;;;;3.03;2.80;;;;;;;;;;5017760;28;20193;-50
2023/08/16 01:50:36;;;;;;;5.60;3.50;;;;;;;;;;5017731;28;20591;-50
2023/08/16 01:53:02;;;;;;;4.72;3.58;;;;;;;;;;5017300;28;20184;-50
2023/08/16 01:55:28;;;;;;;4.88;2.85;;;;;;;;;;5017989;28;20451;-50
2023/08/16 01:57:54;;;;;;;5.00;3.05;;;;;;;;;;5017945;28;20231;-50
2023/08/16 02:00:20;;;;;;;3.90;3.50;;;;;;;;;;5016884;28;20198;-50
2023/08/16 02:02:45;;;;;;;4.05;3.50;;;;;;;;;;5016531;28;20180;-50
2023/08/16 02:05:11;;;;;;;4.10;3.50;;;;;;;;;;5018076;28;20188;-50
2023/08/16 02:07:37;;;;;;;5.13;3.05;;;;;;;;;;5017968;28;20184;-50
2023/08/16 02:10:03;;;;;;;5.53;3.15;;;;;;;;;;5017990;28;20227;-50
2023/08/16 02:12:29;;;;;;;6.57;3.00;;;;;;;;;;5016920;28;20259;-50
2023/08/16 02:14:55;;;;;;;3.55;3.25;;;;;;;;;;5017215;28;20291;-50
2023/08/16 02:17:21;;;;;;;3.90;3.40;;;;;;;;;;5017482;28;20610;-50
2023/08/16 02:19:47;;;;;;;4.43;2.45;;;;;;;;;;5017700;28;20188;-50
2023/08/16 02:22:13;;;;;;;3.33;3.00;;;;;;;;;;5017475;28;20176;-50
2023/08/16 02:24:39;;;;;;;5.75;3.38;;;;;;;;;;5017272;28;20192;-50
2023/08/16 02:27:05;;;;;;;8.02;3.25;;;;;;;;;;5017297;28;20207;-50
2023/08/16 02:29:31;;;;;;;3.22;2.97;;;;;;;;;;5016914;28;20436;-50
2023/08/16 02:31:57;;;;;;;3.28;2.88;;;;;;;;;;5016637;28;20548;-50
2023/08/16 02:34:23;;;;;;;5.95;3.25;;;;;;;;;;5016678;28;20576;-50
2023/08/16 02:36:49;;;;;;;5.15;3.33;;;;;;;;;;5017685;28;20176;-50
2023/08/16 02:39:15;;;;;;;5.05;3.47;;;;;;;;;;5016163;28;20262;-50
2023/08/16 02:41:41;;;;;;;6.88;3.60;;;;;;;;;;5016816;28;20192;-50
2023/08/16 02:44:07;;;;;;;5.35;3.20;;;;;;;;;;5032150;28;20196;-50
2023/08/16 02:46:32;;;;;;;5.47;3.20;;;;;;;;;;5017176;28;20188;-50
2023/08/16 02:48:58;;;;;;;3.30;3.00;;;;;;;;;;5017031;28;20184;-50
2023/08/16 02:51:24;;;;;;;8.55;3.85;;;;;;;;;;5016570;28;20548;-50
2023/08/16 02:53:50;;;;;;;7.72;3.33;;;;;;;;;;5016065;28;20197;-50
2023/08/16 02:56:16;;;;;;;4.63;3.38;;;;;;;;;;5016954;28;20199;-50
2023/08/16 02:58:42;;;;;;;7.63;3.33;;;;;;;;;;5016564;28;20216;-50
2023/08/16 03:01:08;;;;;;;7.10;3.50;;;;;;;;;;5016290;28;20180;-51
2023/08/16 03:03:34;;;;;;;5.45;3.60;;;;;;;;;;5016258;28;20582;-50
2023/08/16 03:06:00;;;;;;;3.90;3.38;;;;;;;;;;5015970;28;20184;-50
2023/08/16 03:08:26;;;;;;;5.20;3.30;;;;;;;;;;5015893;28;20590;-50
2023/08/16 03:10:52;;;;;;;4.88;4.18;;;;;;;;;;5016316;28;20219;-50
2023/08/16 03:13:18;;;;;;;5.38;3.72;;;;;;;;;;5015546;28;20215;-50
2023/08/16 03:15:44;;;;;;;4.38;3.97;;;;;;;;;;5016492;28;20220;-50
2023/08/16 03:18:10;;;;;;;6.03;3.63;;;;;;;;;;5016663;28;20587;-50
2023/08/16 03:20:36;;;;;;;6.60;4.55;;;;;;;;;;5016709;28;20251;-50
2023/08/16 03:23:02;;;;;;;4.80;3.70;;;;;;;;;;5015161;28;20508;-50
2023/08/16 03:25:28;;;;;;;5.32;4.82;;;;;;;;;;5016610;28;20187;-50
2023/08/16 03:27:54;;;;;;;5.47;4.18;;;;;;;;;;5016325;28;20800;-50
2023/08/16 03:30:20;;;;;;;6.78;4.43;;;;;;;;;;5016384;28;20211;-50
2023/08/16 03:32:46;;;;;;;10.88;4.57;;;;;;;;;;5015225;28;20199;-50
2023/08/16 03:35:11;;;;;;;7.40;4.40;;;;;;;;;;5016118;28;20204;-50
2023/08/16 03:37:37;;;;;;;7.63;4.70;;;;;;;;;;5014722;28;20815;-50
2023/08/16 03:40:05;;;;;;;4.72;4.32;;;;;;;;;;5015689;28;20173;-50
2023/08/16 03:42:31;;;;;;;5.65;4.68;;;;;;;;;;5014665;28;20469;-50
2023/08/16 03:44:57;;;;;;;5.68;4.85;;;;;;;;;;5014729;28;20618;-50
2023/08/16 03:47:23;;;;;;;4.57;4.10;;;;;;;;;;5015287;28;20275;-50
2023/08/16 03:49:49;;;;;;;6.88;4.60;;;;;;;;;;5015565;28;20437;-50
2023/08/16 03:52:15;;;;;;;5.85;4.78;;;;;;;;;;5016026;28;20322;-50
2023/08/16 03:54:41;;;;;;;7.75;5.05;;;;;;;;;;5012875;28;20208;-50
2023/08/16 03:57:07;;;;;;;5.95;4.45;;;;;;;;;;5015649;28;20192;-50
2023/08/16 03:59:33;;;;;;;11.68;4.70;;;;;;;;;;5015581;28;20556;-50
2023/08/16 04:01:59;;;;;;;6.50;5.05;;;;;;;;;;5015756;28;20206;-50
2023/08/16 04:04:25;;;;;;;6.30;4.60;;;;;;;;;;5014627;28;20239;-50
2023/08/16 04:06:50;;;;;;;5.40;4.55;;;;;;;;;;5015890;28;20243;-50
2023/08/16 04:09:16;;;;;;;5.68;4.68;;;;;;;;;;5015359;28;20610;-50
2023/08/16 04:11:42;;;;;;;5.95;4.65;;;;;;;;;;5015646;28;20189;-50
2023/08/16 04:14:08;;;;;;;5.45;4.50;;;;;;;;;;5014532;28;20185;-50
2023/08/16 04:16:34;;;;;;;12.25;4.68;;;;;;;;;;5015111;28;20222;-49
2023/08/16 04:19:01;;;;;;;8.52;6.35;;;;;;;;;;5015177;28;20591;-50
2023/08/16 04:21:26;;;;;;;6.40;5.80;;;;;;;;;;5015146;28;20189;-50
2023/08/16 04:23:52;;;;;;;13.20;7.05;;;;;;;;;;5014813;28;20184;-50
2023/08/16 04:26:18;;;;;;;10.27;7.38;;;;;;;;;;5015547;28;20192;-50
2023/08/16 04:28:44;;;;;;;14.07;9.43;;;;;;;;;;5015540;28;20263;-50
2023/08/16 04:31:10;;;;;;;10.20;7.00;;;;;;;;;;5015055;28;20279;-50
2023/08/16 04:33:37;;;;;;;13.65;6.55;;;;;;;;;;5014442;28;20195;-50
2023/08/16 04:36:03;;;;;;;8.25;6.35;;;;;;;;;;5030219;28;20563;-50
2023/08/16 04:38:29;;;;;;;9.45;6.00;;;;;;;;;;5013805;28;20247;-50
2023/08/16 04:40:55;;;;;;;9.20;6.85;;;;;;;;;;5015092;28;20184;-51
2023/08/16 04:43:21;;;;;;;7.43;6.55;;;;;;;;;;5014469;28;20183;-50
2023/08/16 04:45:47;;;;;;;11.98;7.05;;;;;;;;;;5015204;28;20192;-50
2023/08/16 04:48:13;;;;;;;9.48;7.43;;;;;;;;;;5014714;28;20463;-50
2023/08/16 04:50:39;;;;;;;11.95;7.75;;;;;;;;;;5014833;28;20184;-50
2023/08/16 04:53:05;;;;;;;11.32;8.13;;;;;;;;;;5014326;28;20563;-50
2023/08/16 04:55:30;;;;;;;10.88;7.82;;;;;;;;;;5014902;28;20196;-50
2023/08/16 04:57:56;;;;;;;10.55;6.97;;;;;;;;;;5013929;28;20595;-51
2023/08/16 05:00:23;;;;;;;9.48;7.30;;;;;;;;;;5014227;28;20191;-52
2023/08/16 05:02:49;;;;;;;10.20;6.50;;;;;;;;;;5013491;28;20196;-52
2023/08/16 05:05:14;;;;;;;8.25;5.40;;;;;;;;;;5013246;28;20191;-52
2023/08/16 05:07:40;;;;;;;10.60;5.65;;;;;;;;;;5014712;28;20195;-52
2023/08/16 05:10:07;;;;;;;10.27;5.28;;;;;;;;;;5014125;28;20279;-52
2023/08/16 05:12:32;;;;;;;8.50;5.85;;;;;;;;;;5011901;28;20195;-52
2023/08/16 05:14:58;;;;;;;6.30;5.40;;;;;;;;;;5014000;28;20188;-52
2023/08/16 05:17:24;;;;;;;9.50;5.35;;;;;;;;;;5014192;28;20184;-52
2023/08/16 05:19:50;;;;;;;6.82;4.70;;;;;;;;;;5014456;28;20179;-52
2023/08/16 05:22:16;;;;;;;5.20;4.70;;;;;;;;;;5014830;28;20622;-52
2023/08/16 05:24:42;;;;;;;6.50;5.30;;;;;;;;;;5014785;28;20169;-52
2023/08/16 05:27:12;;;;;;;7.63;5.07;;;;;;;;;;5014532;28;20180;-52
2023/08/16 05:29:39;;;;;;;5.65;4.60;;;;;;;;;;5014394;28;20184;-52
2023/08/16 05:32:04;;;;;;;8.68;5.45;;;;;;;;;;5014150;28;20251;-52
2023/08/16 05:34:30;;;;;;;5.63;4.95;;;;;;;;;;5014078;28;20564;-52
2023/08/16 05:36:56;;;;;;;10.88;5.45;;;;;;;;;;5014493;28;20199;-52
2023/08/16 05:39:22;;;;;;;8.43;5.40;;;;;;;;;;5014571;28;20204;-52
2023/08/16 05:41:48;;;;;;;5.70;5.10;;;;;;;;;;5014026;28;20180;-52
2023/08/16 05:44:14;;;;;;;5.45;4.93;;;;;;;;;;5014425;28;20501;-52
2023/08/16 05:46:40;;;;;;;6.22;5.63;;;;;;;;;;5014431;28;20180;-52
2023/08/16 05:49:06;;;;;;;6.50;5.72;;;;;;;;;;5014027;28;20445;-52
2023/08/16 05:51:33;;;;;;;6.90;5.38;;;;;;;;;;5014216;28;20185;-52
2023/08/16 05:53:59;;;;;;;7.03;5.53;;;;;;;;;;5013773;28;20434;-52
2023/08/16 05:56:25;;;;;;;6.65;5.28;;;;;;;;;;5013328;28;20231;-52
2023/08/16 05:58:51;;;;;;;7.78;6.18;;;;;;;;;;5014559;28;20216;-52
2023/08/16 06:01:17;;;;;;;8.02;5.82;;;;;;;;;;5014007;28;20234;-52
2023/08/16 06:03:42;;;;;;;5.95;5.35;;;;;;;;;;5014212;28;20570;-52
2023/08/16 06:06:08;;;;;;;8.07;5.85;;;;;;;;;;5016518;28;20606;-52
2023/08/16 06:08:34;;;;;;;6.20;5.60;;;;;;;;;;5017636;28;20188;-52
2023/08/16 06:11:05;;;;;;;10.70;6.57;;;;;;;;;;5017377;28;20188;-52
2023/08/16 06:13:30;;;;;;;10.07;7.68;;;;;;;;;;5017321;28;20187;-52
2023/08/16 06:15:56;;;;;;;8.63;7.28;;;;;;;;;;5017800;28;20260;-52
2023/08/16 06:18:22;;;;;;;10.68;8.02;;;;;;;;;;5017681;28;20641;-52
2023/08/16 06:20:48;;;;;;;9.52;8.00;;;;;;;;;;5016760;28;20204;-52
2023/08/16 06:23:15;;;;;;;10.02;7.40;;;;;;;;;;5016584;28;20177;-52
2023/08/16 06:25:41;;;;;;;9.35;7.57;;;;;;;;;;5017788;28;20455;-52
2023/08/16 06:28:06;;;;;;;9.63;7.88;;;;;;;;;;5017264;28;20559;-52
2023/08/16 06:30:32;;;;;;;10.07;7.95;;;;;;;;;;5014007;28;20220;-52
2023/08/16 06:32:58;;;;;;;10.20;7.88;;;;;;;;;;5016533;28;20599;-52
2023/08/16 06:35:24;;;;;;;9.93;8.18;;;;;;;;;;5017258;28;20224;-52
2023/08/16 06:37:50;;;;;;;10.30;7.80;;;;;;;;;;5016861;28;20224;-52
2023/08/16 06:40:16;;;;;;;12.50;8.70;;;;;;;;;;5017218;28;20184;-52
2023/08/16 06:42:42;;;;;;;9.38;8.30;;;;;;;;;;5016758;28;20571;-52
2023/08/16 06:45:09;;;;;;;11.40;8.32;;;;;;;;;;5017115;28;20238;-52
2023/08/16 06:47:35;;;;;;;11.35;7.97;;;;;;;;;;5017041;28;20267;-52
2023/08/16 06:50:01;;;;;;;11.88;8.90;;;;;;;;;;5016973;28;20197;-52
2023/08/16 06:52:27;;;;;;;13.77;8.77;;;;;;;;;;5016533;28;20570;-52
2023/08/16 06:54:53;;;;;;;14.40;9.48;;;;;;;;;;5016668;28;20262;-52
2023/08/16 06:57:19;;;;;;;13.60;9.30;;;;;;;;;;5032257;28;20259;-52
2023/08/16 06:59:45;;;;;;;16.38;10.23;;;;;;;;;;5016907;28;20274;-52
2023/08/16 07:02:11;;;;;;;16.33;10.50;;;;;;;;;;5017083;28;20243;-52
2023/08/16 07:04:40;;;;;;;15.98;10.75;;;;;;;;;;5016701;28;20615;-52
2023/08/16 07:07:06;;;;;;;16.42;11.25;;;;;;;;;;5016559;28;20191;-52
2023/08/16 07:09:32;;;;;;;16.58;11.40;;;;;;;;;;5016729;28;20188;-52
2023/08/16 07:11:58;;;;;;;15.30;10.50;;;;;;;;;;5016847;28;20473;-52
2023/08/16 07:14:24;;;;;;;12.70;10.07;;;;;;;;;;5015104;28;20256;-52
2023/08/16 07:16:51;;;;;;;15.38;10.20;;;;;;;;;;5016360;28;20184;-52
2023/08/16 07:19:17;;;;;;;15.18;10.65;;;;;;;;;;5016173;28;20218;-52
2023/08/16 07:21:43;;;;;;;13.80;10.18;;;;;;;;;;5015168;28;20184;-52
2023/08/16 07:24:09;;;;;;;16.80;11.15;;;;;;;;;;5014961;28;20192;-52
2023/08/16 07:26:35;;;;;;;16.17;10.75;;;;;;;;;;5015416;28;20180;-52
2023/08/16 07:29:01;;;;;;;16.20;10.82;;;;;;;;;;5015776;28;20202;-52
2023/08/16 07:31:27;;;;;;;17.65;11.23;;;;;;;;;;5015334;28;20188;-52
2023/08/16 07:33:53;;;;;;;14.20;10.93;;;;;;;;;;5015724;28;20203;-52
2023/08/16 07:36:19;;;;;;;15.63;10.70;;;;;;;;;;5015976;28;20462;-52
2023/08/16 07:38:47;;;;;;;17.98;11.75;;;;;;;;;;5016198;28;20212;-52
2023/08/16 07:41:13;;;;;;;15.45;10.82;;;;;;;;;;5031562;28;20179;-52
2023/08/16 07:43:39;;;;;;;17.08;10.60;;;;;;;;;;5015455;28;20180;-52
2023/08/16 07:46:05;;;;;;;14.85;10.02;;;;;;;;;;5016298;28;20561;-52
2023/08/16 07:48:31;;;;;;;14.27;10.63;;;;;;;;;;5015793;28;20650;-52
2023/08/16 07:50:57;;;;;;;16.80;10.73;;;;;;;;;;5015371;28;20191;-52
2023/08/16 07:53:23;;;;;;;17.98;10.63;;;;;;;;;;5015700;28;20238;-52
2023/08/16 07:55:49;;;;;;;18.90;11.30;;;;;;;;;;5015476;28;20275;-52
2023/08/16 07:58:15;;;;;;;17.60;10.57;;;;;;;;;;5015700;28;20219;-52
2023/08/16 08:00:42;;;;;;;17.10;11.15;;;;;;;;;;5015152;28;20299;-52
2023/08/16 08:03:09;;;;;;;16.85;11.07;;;;;;;;;;5014903;28;20590;-52
2023/08/16 08:05:36;;;;;;;17.08;10.77;;;;;;;;;;5015278;28;20334;-52
2023/08/16 08:08:02;;;;;;;17.30;11.07;;;;;;;;;;5015856;28;20203;-52
2023/08/16 08:10:30;;;;;;;17.33;10.23;;;;;;;;;;5015545;28;20180;-52
2023/08/16 08:12:56;;;;;;;15.52;10.13;;;;;;;;;;5014923;28;20177;-52
2023/08/16 08:15:22;;;;;;;17.58;10.80;;;;;;;;;;5015755;28;20189;-52
2023/08/16 08:17:48;;;;;;;17.10;11.23;;;;;;;;;;5013715;28;20262;-52
2023/08/16 08:20:14;;;;;;;16.00;10.48;;;;;;;;;;5015599;28;20188;-52
2023/08/16 08:22:40;;;;;;;13.40;9.77;;;;;;;;;;5014985;28;20180;-52
2023/08/16 08:25:07;;;;;;;15.73;10.95;;;;;;;;;;5015075;28;20181;-52
2023/08/16 08:27:33;;;;;;;17.88;10.65;;;;;;;;;;5010108;28;20187;-52
2023/08/16 08:29:59;;;;;;;15.90;10.70;;;;;;;;;;5014741;28;20552;-52
2023/08/16 08:32:25;;;;;;;15.10;9.80;;;;;;;;;;5014454;28;20200;-52
2023/08/16 08:34:51;;;;;;;15.25;10.00;;;;;;;;;;5015054;28;20555;-52
2023/08/16 08:37:17;;;;;;;17.80;10.55;;;;;;;;;;5015118;28;20226;-52
2023/08/16 08:39:43;;;;;;;14.30;9.23;;;;;;;;;;5015084;28;20189;-52
2023/08/16 08:42:09;;;;;;;13.77;10.07;;;;;;;;;;5014763;28;20219;-52
2023/08/16 08:44:37;;;;;;;13.57;9.43;;;;;;;;;;5015186;28;20283;-52
2023/08/16 08:47:05;;;;;;;13.88;10.68;;;;;;;;;;5014930;28;20195;-52
2023/08/16 08:49:34;;;;;;;14.15;10.48;;;;;;;;;;5014831;28;20345;-52
2023/08/16 08:52:02;;;;;;;16.58;10.50;;;;;;;;;;5015298;28;20453;-52
2023/08/16 08:54:28;;;;;;;15.48;10.35;;;;;;;;;;5014697;28;20242;-52
2023/08/16 08:56:54;;;;;;;16.17;10.50;;;;;;;;;;5014819;28;20556;-52
2023/08/16 08:59:20;;;;;;;13.60;9.98;;;;;;;;;;5014935;28;20196;-52
2023/08/16 09:01:48;;;;;;;15.27;10.38;;;;;;;;;;5014068;28;20180;-52
2023/08/16 09:04:15;;;;;;;15.48;10.60;;;;;;;;;;5014703;28;20322;-52
2023/08/16 09:06:42;;;;;;;15.90;10.10;;;;;;;;;;5014757;28;20176;-52
2023/08/16 09:09:08;;;;;;;14.23;10.13;;;;;;;;;;5014782;28;20459;-52
2023/08/16 09:11:34;;;;;;;14.88;10.32;;;;;;;;;;5014522;28;20185;-52
2023/08/16 09:14:02;;;;;;;12.80;9.68;;;;;;;;;;5014566;28;20184;-52
2023/08/16 09:16:28;;;;;;;14.77;9.88;;;;;;;;;;5014511;28;20180;-52
2023/08/16 09:18:54;;;;;;;14.98;9.98;;;;;;;;;;5012959;28;20299;-52
2023/08/16 09:21:24;;;;;;;17.48;10.27;;;;;;;;;;5013240;28;20189;-52
2023/08/16 09:23:55;;;;;;;14.93;10.02;;;;;;;;;;5013996;28;20177;-52
2023/08/16 09:26:21;;;;;;;16.90;10.98;;;;;;;;;;5014449;28;20591;-52
2023/08/16 09:28:47;;;;;;;16.83;11.15;;;;;;;;;;5013911;28;20185;-52
2023/08/16 09:31:14;;;;;;;15.93;11.07;;;;;;;;;;5011545;28;20191;-52
2023/08/16 09:33:40;;;;;;;16.63;10.73;;;;;;;;;;5012908;28;20591;-52
2023/08/16 09:36:06;;;;;;;16.52;11.10;;;;;;;;;;5013623;28;20590;-52
2023/08/16 09:38:32;;;;;;;15.13;10.00;;;;;;;;;;5012314;28;20591;-52
2023/08/16 09:41:00;;;;;;;13.63;9.88;;;;;;;;;;5015010;28;20243;-52
2023/08/16 09:43:32;;;;;;;15.68;10.65;;;;;;;;;;5017377;28;20295;-52
2023/08/16 09:45:58;;;;;;;14.68;10.43;;;;;;;;;;5017602;28;20452;-52
2023/08/16 09:48:27;;;;;;;15.25;10.63;;;;;;;;;;5018318;28;20192;-52
2023/08/16 09:51:01;;;;;;;14.95;10.20;;;;;;;;;;5017426;28;20180;-52
2023/08/16 09:53:27;;;;;;;16.15;10.10;;;;;;;;;;5016318;28;20700;-52
2023/08/16 09:55:55;;;;;;;15.40;10.07;;;;;;;;;;5017491;28;20193;-52
2023/08/16 09:58:21;;;;;;;15.95;10.80;;;;;;;;;;5018066;28;20302;-52
2023/08/16 10:00:48;;;;;;;17.45;10.15;;;;;;;;;;5017460;28;20556;-52
2023/08/16 10:03:15;;;;;;;14.02;10.10;;;;;;;;;;5017574;28;20208;-52
2023/08/16 10:05:41;;;;;;;12.80;9.55;;;;;;;;;;5018039;28;20204;-52
2023/08/16 10:08:09;;;;;;;12.85;9.18;;;;;;;;;;5033427;28;20552;-52
2023/08/16 10:10:35;;;;;;;13.88;9.98;;;;;;;;;;5033163;28;20364;-52
2023/08/16 10:13:01;;;;;;;16.40;10.75;;;;;;;;;;5017432;28;20193;-52
2023/08/16 10:15:32;;;;;;;16.45;9.50;;;;;;;;;;5017421;28;20251;-52
2023/08/16 10:18:00;;;;;;;13.35;8.60;;;;;;;;;;5017580;28;20242;-52
2023/08/16 10:20:27;;;;;;;13.30;8.85;;;;;;;;;;5017106;28;20212;-52
2023/08/16 10:22:59;;;;;;;15.40;10.07;;;;;;;;;;5016776;28;20295;-52
2023/08/16 10:25:28;;;;;;;13.45;9.18;;;;;;;;;;5016321;28;20181;-52
2023/08/16 10:27:55;;;;;;;12.30;8.68;;;;;;;;;;5016545;28;20185;-52
2023/08/16 10:30:25;;;;;;;11.60;9.10;;;;;;;;;;5017207;28;20180;-52
2023/08/16 10:33:03;;;;;;;16.77;8.27;;;;;;;;;;5016932;28;20650;-52
2023/08/16 10:35:29;;;;;;;14.77;8.52;;;;;;;;;;5017124;28;20181;-52
2023/08/16 10:37:57;;;;;;;11.82;8.05;;;;;;;;;;5017349;28;20275;-52
2023/08/16 10:40:23;;;;;;;11.10;7.82;;;;;;;;;;5017127;28;20172;-52
2023/08/16 10:42:53;;;;;;;12.30;8.38;;;;;;;;;;5016725;28;20196;-52
2023/08/16 10:45:23;;;;;;;11.07;8.55;;;;;;;;;;5013488;28;20172;-52
2023/08/16 10:47:49;;;;;;;14.38;8.13;;;;;;;;;;5028586;28;20235;-52
2023/08/16 10:50:15;;;;;;;11.15;7.85;;;;;;;;;;5016815;28;20571;-52
2023/08/16 10:52:42;;;;;;;10.82;7.20;;;;;;;;;;5016640;28;20190;-52
2023/08/16 10:55:08;;;;;;;9.10;7.03;;;;;;;;;;5016500;28;20262;-52
2023/08/16 10:57:34;;;;;;;9.35;7.22;;;;;;;;;;5016527;28;20196;-52
2023/08/16 11:00:05;;;;;;;9.30;7.45;;;;;;;;;;5016357;28;20189;-52
2023/08/16 11:02:32;;;;;;;11.10;7.75;;;;;;;;;;5016417;28;20267;-52
2023/08/16 11:04:59;;;;;;;10.52;6.85;;;;;;;;;;5016556;28;20641;-52
2023/08/16 11:07:25;;;;;;;8.48;7.13;;;;;;;;;;5017053;28;20169;-52
2023/08/16 11:09:51;;;;;;;9.68;7.50;;;;;;;;;;5016805;28;20196;-52
2023/08/16 11:12:17;;;;;;;9.25;7.35;;;;;;;;;;5016893;28;20283;-52
2023/08/16 11:14:46;;;;;;;9.88;7.40;;;;;;;;;;5015610;28;20188;-52
2023/08/16 11:17:15;;;;;;;9.77;7.10;;;;;;;;;;5016650;28;20184;-52
2023/08/16 11:19:42;;;;;;;8.35;6.85;;;;;;;;;;5016581;28;20211;-52
2023/08/16 11:22:11;;;;;;;9.43;7.00;;;;;;;;;;5016278;28;20177;-52
2023/08/16 11:24:37;;;;;;;8.13;6.72;;;;;;;;;;5031653;28;20179;-52
2023/08/16 11:27:06;;;;;;;11.63;6.82;;;;;;;;;;5016207;28;20443;-51
2023/08/16 11:29:32;;;;;;;17.92;7.97;;;;;;;;;;5031218;28;20196;-52
2023/08/16 11:31:59;;;;;;;15.90;7.18;;;;;;;;;;5015785;28;20184;-52
2023/08/16 11:34:25;;;;;;;10.40;6.75;;;;;;;;;;5015218;28;20176;-52
2023/08/16 11:36:51;;;;;;;10.77;6.80;;;;;;;;;;5016373;28;20246;-52
2023/08/16 11:39:18;;;;;;;10.40;6.93;;;;;;;;;;5016359;28;20216;-52
2023/08/16 11:41:44;;;;;;;10.65;7.40;;;;;;;;;;5015838;28;20267;-52
2023/08/16 11:44:12;;;;;;;10.90;7.30;;;;;;;;;;5015265;28;20259;-52
2023/08/16 11:46:42;;;;;;;9.30;6.47;;;;;;;;;;5016218;28;20834;-52
2023/08/16 11:49:08;;;;;;;9.55;6.72;;;;;;;;;;5014980;28;20263;-52
2023/08/16 11:51:34;;;;;;;10.05;7.38;;;;;;;;;;5015948;28;20275;-52
2023/08/16 11:54:00;;;;;;;8.48;6.70;;;;;;;;;;5015133;28;20462;-52
2023/08/16 11:56:29;;;;;;;9.30;7.00;;;;;;;;;;5015554;28;20287;-52
2023/08/16 11:58:57;;;;;;;9.55;7.55;;;;;;;;;;5015305;28;20207;-52
2023/08/16 12:01:23;;;;;;;8.85;6.78;;;;;;;;;;5015259;28;20227;-52
2023/08/16 12:03:49;;;;;;;10.25;7.00;;;;;;;;;;5013899;28;20227;-52
2023/08/16 12:06:19;;;;;;;8.50;6.82;;;;;;;;;;5015522;28;20238;-52
2023/08/16 12:08:49;;;;;;;10.32;6.72;;;;;;;;;;5016084;28;20180;-52
2023/08/16 12:11:25;;;;;;;7.75;6.93;;;;;;;;;;5015465;28;20188;-52
2023/08/16 12:13:51;;;;;;;10.45;6.63;;;;;;;;;;5011729;28;20188;-52
2023/08/16 12:16:17;;;;;;;9.50;6.50;;;;;;;;;;5013865;28;21395;-52
2023/08/16 12:18:43;;;;;;;8.07;6.60;;;;;;;;;;5015638;28;20216;-51
2023/08/16 12:21:09;;;;;;;8.25;6.28;;;;;;;;;;5015364;28;20200;-52
2023/08/16 12:23:35;;;;;;;12.45;6.50;;;;;;;;;;5014835;28;20183;-52
2023/08/16 12:26:01;;;;;;;10.73;6.72;;;;;;;;;;5015354;28;20212;-52
2023/08/16 12:28:27;;;;;;;33.20;10.18;;;;;;;;;;5013589;28;20180;-52
2023/08/16 12:30:53;;;;;;;33.95;11.10;;;;;;;;;;5013713;28;20206;-52
2023/08/16 12:33:19;;;;;;;32.85;10.02;;;;;;;;;;5013750;28;20567;-52
2023/08/16 12:35:45;;;;;;;34.03;8.85;;;;;;;;;;5014721;28;20181;-52
2023/08/16 12:38:12;;;;;;;20.25;8.75;;;;;;;;;;5014948;28;20227;-52
2023/08/16 12:40:38;;;;;;;24.52;7.38;;;;;;;;;;5014922;28;20180;-52
2023/08/16 12:43:04;;;;;;;21.25;8.63;;;;;;;;;;5014236;28;20215;-52
2023/08/16 12:45:30;;;;;;;18.75;8.80;;;;;;;;;;5015284;28;20234;-51
2023/08/16 12:47:56;;;;;;;14.73;7.13;;;;;;;;;;5014647;28;20441;-52
2023/08/16 12:50:22;;;;;;;14.80;7.18;;;;;;;;;;5015494;28;20622;-52
2023/08/16 12:52:48;;;;;;;14.15;7.25;;;;;;;;;;5014490;28;20298;-52
2023/08/16 12:55:14;;;;;;;16.55;7.57;;;;;;;;;;5014799;28;20211;-52
2023/08/16 12:57:40;;;;;;;12.43;6.90;;;;;;;;;;5014382;28;20211;-51
2023/08/16 13:00:11;;;;;;;14.95;7.60;;;;;;;;;;5014470;28;20181;-51
2023/08/16 13:02:37;;;;;;;8.88;6.45;;;;;;;;;;5014777;28;20181;-51
2023/08/16 13:05:03;;;;;;;12.27;7.15;;;;;;;;;;5015268;28;20186;-51
2023/08/16 13:07:29;;;;;;;10.52;6.55;;;;;;;;;;5014550;28;20479;-51
2023/08/16 13:09:55;;;;;;;8.82;6.22;;;;;;;;;;5014702;28;20215;-52
2023/08/16 13:12:21;;;;;;;10.32;6.30;;;;;;;;;;5014720;28;20211;-52
2023/08/16 13:14:47;;;;;;;9.65;6.13;;;;;;;;;;5016968;28;20211;-52
2023/08/16 13:17:13;;;;;;;8.70;6.25;;;;;;;;;;5018585;28;20199;-51
2023/08/16 13:19:39;;;;;;;7.20;5.68;;;;;;;;;;5034567;28;20200;-51
2023/08/16 13:22:05;;;;;;;9.93;5.90;;;;;;;;;;5019230;28;20173;-51
2023/08/16 13:24:31;;;;;;;8.05;6.70;;;;;;;;;;5017653;28;20420;-51
2023/08/16 13:26:56;;;;;;;9.10;6.38;;;;;;;;;;5018649;28;20176;-51
2023/08/16 13:29:22;;;;;;;7.90;5.97;;;;;;;;;;5017960;28;20188;-51
2023/08/16 13:31:48;;;;;;;7.60;5.95;;;;;;;;;;5018783;28;20185;-51
2023/08/16 13:34:14;;;;;;;6.93;5.63;;;;;;;;;;5017776;28;20196;-51
2023/08/16 13:36:40;;;;;;;9.52;5.55;;;;;;;;;;5017919;28;20189;-51
2023/08/16 13:39:06;;;;;;;7.32;5.60;;;;;;;;;;5018388;28;20215;-51
2023/08/16 13:41:32;;;;;;;9.60;5.35;;;;;;;;;;5018614;28;20181;-51
2023/08/16 13:43:59;;;;;;;6.25;5.00;;;;;;;;;;5017845;28;20498;-52
2023/08/16 13:46:24;;;;;;;6.38;5.60;;;;;;;;;;5017908;28;20172;-52
2023/08/16 13:48:50;;;;;;;7.57;5.95;;;;;;;;;;5018239;28;20191;-51
2023/08/16 13:51:16;;;;;;;6.50;5.18;;;;;;;;;;5017802;28;20193;-51
2023/08/16 13:53:42;;;;;;;7.97;5.60;;;;;;;;;;5017826;28;20180;-51
2023/08/16 13:56:08;;;;;;;6.50;5.32;;;;;;;;;;5018283;28;20188;-51
2023/08/16 13:58:34;;;;;;;8.38;5.57;;;;;;;;;;5018084;28;20212;-51
2023/08/16 14:01:00;;;;;;;6.35;5.20;;;;;;;;;;5033615;28;20191;-51
2023/08/16 14:03:26;;;;;;;7.38;5.50;;;;;;;;;;5016837;28;20724;-51
2023/08/16 14:06:00;;;;;;;6.63;4.78;;;;;;;;;;5017718;28;20188;-51
2023/08/16 14:08:26;;;;;;;5.72;4.85;;;;;;;;;;5017102;28;20203;-52
2023/08/16 14:10:55;;;;;;;5.22;4.72;;;;;;;;;;5017496;28;20198;-51
2023/08/16 14:13:22;;;;;;;5.55;4.60;;;;;;;;;;5017819;28;20552;-51
2023/08/16 14:15:51;;;;;;;8.55;5.28;;;;;;;;;;5017856;28;20215;-51
2023/08/16 14:18:17;;;;;;;5.93;4.63;;;;;;;;;;5016828;28;20240;-51
2023/08/16 14:20:43;;;;;;;5.40;4.75;;;;;;;;;;5017998;28;20231;-51
2023/08/16 14:23:10;;;;;;;6.85;4.85;;;;;;;;;;5017206;28;20563;-51
2023/08/16 14:25:36;;;;;;;6.25;4.75;;;;;;;;;;5017052;28;20191;-51
2023/08/16 14:28:02;;;;;;;5.93;4.90;;;;;;;;;;5017194;28;20196;-51